sensor_id;sensor_type;location;lat;lon;timestamp;P1;durP1;ratioP1;P2;durP2;ratioP2
24143;SDS011;12307;50.828;6.080;2023-06-10T00:02:06;2.47;;;2.28;;
24143;SDS011;12307;50.828;6.080;2023-06-10T00:04:32;2.85;;;2.65;;
24143;SDS011;12307;50.828;6.080;2023-06-10T00:06:58;2.60;;;2.40;;
24143;SDS011;12307;50.828;6.080;2023-06-10T00:09:24;2.60;;;2.40;;
24143;SDS011;12307;50.828;6.080;2023-06-10T00:11:50;2.72;;;2.53;;
24143;SDS011;12307;50.828;6.080;2023-06-10T00:14:19;2.58;;;2.38;;
24143;SDS011;12307;50.828;6.080;2023-06-10T00:16:44;2.70;;;2.50;;
24143;SDS011;12307;50.828;6.080;2023-06-10T00:19:10;2.40;;;2.20;;
24143;SDS011;12307;50.828;6.080;2023-06-10T00:21:39;2.53;;;2.33;;
24143;SDS011;12307;50.828;6.080;2023-06-10T00:24:05;2.90;;;2.70;;
24143;SDS011;12307;50.828;6.080;2023-06-10T00:26:32;2.78;;;2.58;;
24143;SDS011;12307;50.828;6.080;2023-06-10T00:28:58;2.85;;;2.55;;
24143;SDS011;12307;50.828;6.080;2023-06-10T00:31:25;2.53;;;2.33;;
24143;SDS011;12307;50.828;6.080;2023-06-10T00:33:51;2.60;;;2.40;;
24143;SDS011;12307;50.828;6.080;2023-06-10T00:36:17;2.70;;;2.50;;
24143;SDS011;12307;50.828;6.080;2023-06-10T00:38:42;2.60;;;2.40;;
24143;SDS011;12307;50.828;6.080;2023-06-10T00:41:08;2.63;;;2.42;;
24143;SDS011;12307;50.828;6.080;2023-06-10T00:43:34;2.60;;;2.40;;
24143;SDS011;12307;50.828;6.080;2023-06-10T00:46:00;2.85;;;2.58;;
24143;SDS011;12307;50.828;6.080;2023-06-10T00:48:28;2.60;;;2.40;;
24143;SDS011;12307;50.828;6.080;2023-06-10T00:50:54;2.70;;;2.50;;
24143;SDS011;12307;50.828;6.080;2023-06-10T00:53:19;2.60;;;2.40;;
24143;SDS011;12307;50.828;6.080;2023-06-10T00:55:46;2.60;;;2.40;;
24143;SDS011;12307;50.828;6.080;2023-06-10T00:58:13;2.97;;;2.78;;
24143;SDS011;12307;50.828;6.080;2023-06-10T01:00:39;2.78;;;2.58;;
24143;SDS011;12307;50.828;6.080;2023-06-10T01:03:04;2.55;;;2.35;;
24143;SDS011;12307;50.828;6.080;2023-06-10T01:05:34;3.03;;;2.80;;
24143;SDS011;12307;50.828;6.080;2023-06-10T01:08:03;2.83;;;2.63;;
24143;SDS011;12307;50.828;6.080;2023-06-10T01:10:36;2.75;;;2.55;;
24143;SDS011;12307;50.828;6.080;2023-06-10T01:13:07;3.10;;;2.80;;
24143;SDS011;12307;50.828;6.080;2023-06-10T01:15:36;2.92;;;2.72;;
24143;SDS011;12307;50.828;6.080;2023-06-10T01:18:03;2.42;;;2.22;;
24143;SDS011;12307;50.828;6.080;2023-06-10T01:20:35;2.88;;;2.65;;
24143;SDS011;12307;50.828;6.080;2023-06-10T01:23:06;2.50;;;2.30;;
24143;SDS011;12307;50.828;6.080;2023-06-10T01:25:32;3.00;;;2.70;;
24143;SDS011;12307;50.828;6.080;2023-06-10T01:28:02;2.83;;;2.63;;
24143;SDS011;12307;50.828;6.080;2023-06-10T01:30:32;2.67;;;2.47;;
24143;SDS011;12307;50.828;6.080;2023-06-10T01:33:04;2.90;;;2.70;;
24143;SDS011;12307;50.828;6.080;2023-06-10T01:35:34;2.83;;;2.63;;
24143;SDS011;12307;50.828;6.080;2023-06-10T01:38:02;3.00;;;2.70;;
24143;SDS011;12307;50.828;6.080;2023-06-10T01:40:30;2.92;;;2.70;;
24143;SDS011;12307;50.828;6.080;2023-06-10T01:42:57;3.10;;;2.80;;
24143;SDS011;12307;50.828;6.080;2023-06-10T01:45:23;2.80;;;2.60;;
24143;SDS011;12307;50.828;6.080;2023-06-10T01:47:48;2.95;;;2.75;;
24143;SDS011;12307;50.828;6.080;2023-06-10T01:50:14;3.10;;;2.90;;
24143;SDS011;12307;50.828;6.080;2023-06-10T01:52:41;3.13;;;2.92;;
24143;SDS011;12307;50.828;6.080;2023-06-10T01:55:07;3.35;;;3.05;;
24143;SDS011;12307;50.828;6.080;2023-06-10T01:57:34;3.15;;;2.85;;
24143;SDS011;12307;50.828;6.080;2023-06-10T02:00:00;2.78;;;2.58;;
24143;SDS011;12307;50.828;6.080;2023-06-10T02:02:25;3.47;;;3.20;;
24143;SDS011;12307;50.828;6.080;2023-06-10T02:04:51;3.13;;;2.90;;
24143;SDS011;12307;50.828;6.080;2023-06-10T02:07:17;2.80;;;2.60;;
24143;SDS011;12307;50.828;6.080;2023-06-10T02:09:43;3.08;;;2.88;;
24143;SDS011;12307;50.828;6.080;2023-06-10T02:12:09;3.10;;;2.90;;
24143;SDS011;12307;50.828;6.080;2023-06-10T02:14:36;3.08;;;2.78;;
24143;SDS011;12307;50.828;6.080;2023-06-10T02:17:02;2.80;;;2.60;;
24143;SDS011;12307;50.828;6.080;2023-06-10T02:19:29;3.17;;;2.88;;
24143;SDS011;12307;50.828;6.080;2023-06-10T02:21:55;3.42;;;3.13;;
24143;SDS011;12307;50.828;6.080;2023-06-10T02:24:22;2.63;;;2.42;;
24143;SDS011;12307;50.828;6.080;2023-06-10T02:26:48;3.22;;;2.92;;
24143;SDS011;12307;50.828;6.080;2023-06-10T02:29:13;3.28;;;2.97;;
24143;SDS011;12307;50.828;6.080;2023-06-10T02:31:40;2.83;;;2.63;;
24143;SDS011;12307;50.828;6.080;2023-06-10T02:34:06;3.22;;;3.00;;
24143;SDS011;12307;50.828;6.080;2023-06-10T02:36:32;2.90;;;2.70;;
24143;SDS011;12307;50.828;6.080;2023-06-10T02:38:57;2.80;;;2.60;;
24143;SDS011;12307;50.828;6.080;2023-06-10T02:41:23;2.75;;;2.55;;
24143;SDS011;12307;50.828;6.080;2023-06-10T02:43:50;2.90;;;2.65;;
24143;SDS011;12307;50.828;6.080;2023-06-10T02:46:15;3.45;;;3.15;;
24143;SDS011;12307;50.828;6.080;2023-06-10T02:48:42;3.28;;;2.97;;
24143;SDS011;12307;50.828;6.080;2023-06-10T02:51:11;2.72;;;2.53;;
24143;SDS011;12307;50.828;6.080;2023-06-10T02:53:37;3.03;;;2.83;;
24143;SDS011;12307;50.828;6.080;2023-06-10T02:56:03;2.95;;;2.75;;
24143;SDS011;12307;50.828;6.080;2023-06-10T02:58:28;3.25;;;2.70;;
24143;SDS011;12307;50.828;6.080;2023-06-10T03:00:54;3.03;;;2.75;;
24143;SDS011;12307;50.828;6.080;2023-06-10T03:03:20;3.00;;;2.70;;
24143;SDS011;12307;50.828;6.080;2023-06-10T03:05:48;3.38;;;3.08;;
24143;SDS011;12307;50.828;6.080;2023-06-10T03:08:14;3.10;;;2.80;;
24143;SDS011;12307;50.828;6.080;2023-06-10T03:10:40;3.00;;;2.80;;
24143;SDS011;12307;50.828;6.080;2023-06-10T03:13:05;2.85;;;2.65;;
24143;SDS011;12307;50.828;6.080;2023-06-10T03:15:31;3.20;;;2.90;;
24143;SDS011;12307;50.828;6.080;2023-06-10T03:17:58;3.10;;;2.90;;
24143;SDS011;12307;50.828;6.080;2023-06-10T03:20:24;2.92;;;2.72;;
24143;SDS011;12307;50.828;6.080;2023-06-10T03:22:52;3.40;;;3.10;;
24143;SDS011;12307;50.828;6.080;2023-06-10T03:25:17;2.80;;;2.60;;
24143;SDS011;12307;50.828;6.080;2023-06-10T03:27:45;3.20;;;3.00;;
24143;SDS011;12307;50.828;6.080;2023-06-10T03:30:12;3.30;;;3.00;;
24143;SDS011;12307;50.828;6.080;2023-06-10T03:32:38;3.35;;;3.05;;
24143;SDS011;12307;50.828;6.080;2023-06-10T03:35:04;3.40;;;3.10;;
24143;SDS011;12307;50.828;6.080;2023-06-10T03:37:31;2.95;;;2.72;;
24143;SDS011;12307;50.828;6.080;2023-06-10T03:39:58;3.33;;;3.03;;
24143;SDS011;12307;50.828;6.080;2023-06-10T03:42:24;3.63;;;3.33;;
24143;SDS011;12307;50.828;6.080;2023-06-10T03:44:50;3.85;;;3.10;;
24143;SDS011;12307;50.828;6.080;2023-06-10T03:47:15;3.08;;;2.85;;
24143;SDS011;12307;50.828;6.080;2023-06-10T03:49:41;3.35;;;3.05;;
24143;SDS011;12307;50.828;6.080;2023-06-10T03:52:07;3.30;;;3.00;;
24143;SDS011;12307;50.828;6.080;2023-06-10T03:54:33;3.00;;;2.80;;
24143;SDS011;12307;50.828;6.080;2023-06-10T03:57:03;2.80;;;2.60;;
24143;SDS011;12307;50.828;6.080;2023-06-10T03:59:30;3.35;;;3.05;;
24143;SDS011;12307;50.828;6.080;2023-06-10T04:01:56;3.45;;;3.00;;
24143;SDS011;12307;50.828;6.080;2023-06-10T04:04:22;3.20;;;2.90;;
24143;SDS011;12307;50.828;6.080;2023-06-10T04:06:48;3.10;;;2.80;;
24143;SDS011;12307;50.828;6.080;2023-06-10T04:09:14;2.85;;;2.65;;
24143;SDS011;12307;50.828;6.080;2023-06-10T04:11:41;2.80;;;2.60;;
24143;SDS011;12307;50.828;6.080;2023-06-10T04:14:08;2.80;;;2.60;;
24143;SDS011;12307;50.828;6.080;2023-06-10T04:16:34;3.25;;;2.95;;
24143;SDS011;12307;50.828;6.080;2023-06-10T04:19:00;2.70;;;2.50;;
24143;SDS011;12307;50.828;6.080;2023-06-10T04:21:26;3.30;;;3.05;;
24143;SDS011;12307;50.828;6.080;2023-06-10T04:23:51;3.20;;;3.00;;
24143;SDS011;12307;50.828;6.080;2023-06-10T04:26:17;3.25;;;3.00;;
24143;SDS011;12307;50.828;6.080;2023-06-10T04:28:43;2.85;;;2.65;;
24143;SDS011;12307;50.828;6.080;2023-06-10T04:31:10;3.00;;;2.80;;
24143;SDS011;12307;50.828;6.080;2023-06-10T04:33:36;3.28;;;2.97;;
24143;SDS011;12307;50.828;6.080;2023-06-10T04:36:02;3.33;;;3.03;;
24143;SDS011;12307;50.828;6.080;2023-06-10T04:38:28;3.10;;;2.88;;
24143;SDS011;12307;50.828;6.080;2023-06-10T04:40:55;3.17;;;2.95;;
24143;SDS011;12307;50.828;6.080;2023-06-10T04:43:21;3.05;;;2.75;;
24143;SDS011;12307;50.828;6.080;2023-06-10T04:45:47;3.30;;;3.03;;
24143;SDS011;12307;50.828;6.080;2023-06-10T04:48:14;3.10;;;2.90;;
24143;SDS011;12307;50.828;6.080;2023-06-10T04:50:40;3.03;;;2.83;;
24143;SDS011;12307;50.828;6.080;2023-06-10T04:53:05;3.22;;;2.92;;
24143;SDS011;12307;50.828;6.080;2023-06-10T04:55:31;2.78;;;2.58;;
24143;SDS011;12307;50.828;6.080;2023-06-10T04:57:58;3.03;;;2.83;;
24143;SDS011;12307;50.828;6.080;2023-06-10T05:00:24;2.90;;;2.70;;
24143;SDS011;12307;50.828;6.080;2023-06-10T05:02:50;3.20;;;2.90;;
24143;SDS011;12307;50.828;6.080;2023-06-10T05:05:18;3.10;;;2.90;;
24143;SDS011;12307;50.828;6.080;2023-06-10T05:07:44;3.03;;;2.83;;
24143;SDS011;12307;50.828;6.080;2023-06-10T05:10:10;2.95;;;2.75;;
24143;SDS011;12307;50.828;6.080;2023-06-10T05:12:37;3.38;;;3.08;;
24143;SDS011;12307;50.828;6.080;2023-06-10T05:15:04;2.78;;;2.58;;
24143;SDS011;12307;50.828;6.080;2023-06-10T05:17:30;2.90;;;2.70;;
24143;SDS011;12307;50.828;6.080;2023-06-10T05:19:56;3.10;;;2.90;;
24143;SDS011;12307;50.828;6.080;2023-06-10T05:22:23;3.08;;;2.78;;
24143;SDS011;12307;50.828;6.080;2023-06-10T05:24:52;2.80;;;2.60;;
24143;SDS011;12307;50.828;6.080;2023-06-10T05:27:18;3.78;;;2.95;;
24143;SDS011;12307;50.828;6.080;2023-06-10T05:29:44;3.13;;;2.92;;
24143;SDS011;12307;50.828;6.080;2023-06-10T05:32:10;3.50;;;3.20;;
24143;SDS011;12307;50.828;6.080;2023-06-10T05:34:36;3.15;;;2.92;;
24143;SDS011;12307;50.828;6.080;2023-06-10T05:37:02;3.17;;;2.97;;
24143;SDS011;12307;50.828;6.080;2023-06-10T05:39:30;2.92;;;2.72;;
24143;SDS011;12307;50.828;6.080;2023-06-10T05:41:57;3.08;;;2.78;;
24143;SDS011;12307;50.828;6.080;2023-06-10T05:44:24;2.95;;;2.75;;
24143;SDS011;12307;50.828;6.080;2023-06-10T05:46:50;3.13;;;2.92;;
24143;SDS011;12307;50.828;6.080;2023-06-10T05:49:16;3.08;;;2.78;;
24143;SDS011;12307;50.828;6.080;2023-06-10T05:51:42;2.78;;;2.58;;
24143;SDS011;12307;50.828;6.080;2023-06-10T05:54:07;2.85;;;2.65;;
24143;SDS011;12307;50.828;6.080;2023-06-10T05:56:34;2.70;;;2.50;;
24143;SDS011;12307;50.828;6.080;2023-06-10T05:59:00;3.08;;;2.78;;
24143;SDS011;12307;50.828;6.080;2023-06-10T06:01:26;3.00;;;2.80;;
24143;SDS011;12307;50.828;6.080;2023-06-10T06:03:51;2.90;;;2.70;;
24143;SDS011;12307;50.828;6.080;2023-06-10T06:06:17;3.10;;;2.90;;
24143;SDS011;12307;50.828;6.080;2023-06-10T06:08:45;3.10;;;2.90;;
24143;SDS011;12307;50.828;6.080;2023-06-10T06:11:11;2.72;;;2.53;;
24143;SDS011;12307;50.828;6.080;2023-06-10T06:13:38;3.00;;;2.72;;
24143;SDS011;12307;50.828;6.080;2023-06-10T06:16:03;2.72;;;2.53;;
24143;SDS011;12307;50.828;6.080;2023-06-10T06:18:29;2.53;;;2.33;;
24143;SDS011;12307;50.828;6.080;2023-06-10T06:20:55;2.90;;;2.70;;
24143;SDS011;12307;50.828;6.080;2023-06-10T06:23:21;2.78;;;2.58;;
24143;SDS011;12307;50.828;6.080;2023-06-10T06:25:46;2.95;;;2.75;;
24143;SDS011;12307;50.828;6.080;2023-06-10T06:28:12;2.50;;;2.30;;
24143;SDS011;12307;50.828;6.080;2023-06-10T06:30:39;3.08;;;2.78;;
24143;SDS011;12307;50.828;6.080;2023-06-10T06:33:05;2.88;;;2.67;;
24143;SDS011;12307;50.828;6.080;2023-06-10T06:35:30;3.25;;;2.95;;
24143;SDS011;12307;50.828;6.080;2023-06-10T06:37:58;2.90;;;2.70;;
24143;SDS011;12307;50.828;6.080;2023-06-10T06:40:24;2.70;;;2.50;;
24143;SDS011;12307;50.828;6.080;2023-06-10T06:42:50;3.03;;;2.83;;
24143;SDS011;12307;50.828;6.080;2023-06-10T06:45:16;2.97;;;2.78;;
24143;SDS011;12307;50.828;6.080;2023-06-10T06:47:43;3.25;;;3.00;;
24143;SDS011;12307;50.828;6.080;2023-06-10T06:50:09;2.88;;;2.67;;
24143;SDS011;12307;50.828;6.080;2023-06-10T06:52:35;3.00;;;2.80;;
24143;SDS011;12307;50.828;6.080;2023-06-10T06:55:00;3.25;;;2.95;;
24143;SDS011;12307;50.828;6.080;2023-06-10T06:57:27;2.92;;;2.72;;
24143;SDS011;12307;50.828;6.080;2023-06-10T06:59:52;2.90;;;2.70;;
24143;SDS011;12307;50.828;6.080;2023-06-10T07:02:18;2.75;;;2.55;;
24143;SDS011;12307;50.828;6.080;2023-06-10T07:04:45;3.40;;;3.10;;
24143;SDS011;12307;50.828;6.080;2023-06-10T07:07:13;3.20;;;2.90;;
24143;SDS011;12307;50.828;6.080;2023-06-10T07:09:39;3.13;;;2.83;;
24143;SDS011;12307;50.828;6.080;2023-06-10T07:12:05;3.08;;;2.88;;
24143;SDS011;12307;50.828;6.080;2023-06-10T07:14:32;3.17;;;2.88;;
24143;SDS011;12307;50.828;6.080;2023-06-10T07:16:57;2.95;;;2.75;;
24143;SDS011;12307;50.828;6.080;2023-06-10T07:19:23;3.20;;;3.00;;
24143;SDS011;12307;50.828;6.080;2023-06-10T07:21:50;2.83;;;2.63;;
24143;SDS011;12307;50.828;6.080;2023-06-10T07:24:16;2.85;;;2.65;;
24143;SDS011;12307;50.828;6.080;2023-06-10T07:26:41;3.10;;;2.80;;
24143;SDS011;12307;50.828;6.080;2023-06-10T07:29:07;2.70;;;2.50;;
24143;SDS011;12307;50.828;6.080;2023-06-10T07:31:33;2.75;;;2.55;;
24143;SDS011;12307;50.828;6.080;2023-06-10T07:33:59;2.80;;;2.60;;
24143;SDS011;12307;50.828;6.080;2023-06-10T07:36:25;2.60;;;2.40;;
24143;SDS011;12307;50.828;6.080;2023-06-10T07:38:54;2.47;;;2.30;;
24143;SDS011;12307;50.828;6.080;2023-06-10T07:41:20;2.35;;;2.15;;
24143;SDS011;12307;50.828;6.080;2023-06-10T07:43:48;2.60;;;2.40;;
24143;SDS011;12307;50.828;6.080;2023-06-10T07:46:19;2.30;;;2.20;;
24143;SDS011;12307;50.828;6.080;2023-06-10T07:48:45;2.20;;;2.10;;
24143;SDS011;12307;50.828;6.080;2023-06-10T07:51:10;2.35;;;2.15;;
24143;SDS011;12307;50.828;6.080;2023-06-10T07:53:36;2.22;;;2.05;;
24143;SDS011;12307;50.828;6.080;2023-06-10T07:56:03;2.42;;;2.22;;
24143;SDS011;12307;50.828;6.080;2023-06-10T07:58:29;2.05;;;1.95;;
24143;SDS011;12307;50.828;6.080;2023-06-10T08:00:55;2.05;;;1.92;;
24143;SDS011;12307;50.828;6.080;2023-06-10T08:03:20;2.17;;;2.05;;
24143;SDS011;12307;50.828;6.080;2023-06-10T08:05:46;2.35;;;2.15;;
24143;SDS011;12307;50.828;6.080;2023-06-10T08:08:12;2.05;;;1.95;;
24143;SDS011;12307;50.828;6.080;2023-06-10T08:10:38;2.38;;;2.17;;
24143;SDS011;12307;50.828;6.080;2023-06-10T08:13:05;2.20;;;2.10;;
24143;SDS011;12307;50.828;6.080;2023-06-10T08:15:31;2.20;;;2.10;;
24143;SDS011;12307;50.828;6.080;2023-06-10T08:17:57;2.15;;;2.05;;
24143;SDS011;12307;50.828;6.080;2023-06-10T08:20:22;2.28;;;2.10;;
24143;SDS011;12307;50.828;6.080;2023-06-10T08:22:48;2.10;;;2.00;;
24143;SDS011;12307;50.828;6.080;2023-06-10T08:25:14;2.40;;;2.20;;
24143;SDS011;12307;50.828;6.080;2023-06-10T08:27:39;2.38;;;2.17;;
24143;SDS011;12307;50.828;6.080;2023-06-10T08:30:07;2.53;;;2.33;;
24143;SDS011;12307;50.828;6.080;2023-06-10T08:32:35;2.05;;;1.95;;
24143;SDS011;12307;50.828;6.080;2023-06-10T08:35:01;2.17;;;2.08;;
24143;SDS011;12307;50.828;6.080;2023-06-10T08:37:28;2.30;;;2.10;;
24143;SDS011;12307;50.828;6.080;2023-06-10T08:39:53;2.20;;;2.00;;
24143;SDS011;12307;50.828;6.080;2023-06-10T08:42:22;2.28;;;2.08;;
24143;SDS011;12307;50.828;6.080;2023-06-10T08:44:50;2.30;;;2.10;;
24143;SDS011;12307;50.828;6.080;2023-06-10T08:47:22;2.30;;;2.10;;
24143;SDS011;12307;50.828;6.080;2023-06-10T08:49:49;2.08;;;1.98;;
24143;SDS011;12307;50.828;6.080;2023-06-10T08:52:17;2.10;;;1.98;;
24143;SDS011;12307;50.828;6.080;2023-06-10T08:54:44;2.20;;;2.10;;
24143;SDS011;12307;50.828;6.080;2023-06-10T08:57:14;2.17;;;2.08;;
24143;SDS011;12307;50.828;6.080;2023-06-10T08:59:42;2.00;;;1.90;;
24143;SDS011;12307;50.828;6.080;2023-06-10T09:02:08;2.00;;;1.90;;
24143;SDS011;12307;50.828;6.080;2023-06-10T09:04:36;2.08;;;1.98;;
24143;SDS011;12307;50.828;6.080;2023-06-10T09:07:02;2.10;;;2.00;;
24143;SDS011;12307;50.828;6.080;2023-06-10T09:09:28;2.25;;;2.15;;
24143;SDS011;12307;50.828;6.080;2023-06-10T09:11:56;1.90;;;1.80;;
24143;SDS011;12307;50.828;6.080;2023-06-10T09:14:22;2.17;;;2.08;;
24143;SDS011;12307;50.828;6.080;2023-06-10T09:16:48;2.25;;;2.10;;
24143;SDS011;12307;50.828;6.080;2023-06-10T09:19:15;2.05;;;1.95;;
24143;SDS011;12307;50.828;6.080;2023-06-10T09:21:43;2.25;;;2.05;;
24143;SDS011;12307;50.828;6.080;2023-06-10T09:24:08;2.28;;;2.08;;
24143;SDS011;12307;50.828;6.080;2023-06-10T09:26:34;2.20;;;2.10;;
24143;SDS011;12307;50.828;6.080;2023-06-10T09:29:02;2.58;;;2.30;;
24143;SDS011;12307;50.828;6.080;2023-06-10T09:31:29;2.13;;;1.95;;
24143;SDS011;12307;50.828;6.080;2023-06-10T09:33:55;2.08;;;1.98;;
24143;SDS011;12307;50.828;6.080;2023-06-10T09:36:30;2.30;;;2.10;;
24143;SDS011;12307;50.828;6.080;2023-06-10T09:38:57;1.88;;;1.77;;
24143;SDS011;12307;50.828;6.080;2023-06-10T09:41:25;1.83;;;1.73;;
24143;SDS011;12307;50.828;6.080;2023-06-10T09:43:57;1.90;;;1.80;;
24143;SDS011;12307;50.828;6.080;2023-06-10T09:46:22;2.20;;;2.00;;
24143;SDS011;12307;50.828;6.080;2023-06-10T09:48:48;2.00;;;1.90;;
24143;SDS011;12307;50.828;6.080;2023-06-10T09:51:14;2.08;;;1.98;;
24143;SDS011;12307;50.828;6.080;2023-06-10T09:53:42;1.88;;;1.77;;
24143;SDS011;12307;50.828;6.080;2023-06-10T09:56:09;2.05;;;1.95;;
24143;SDS011;12307;50.828;6.080;2023-06-10T09:58:35;2.10;;;2.00;;
24143;SDS011;12307;50.828;6.080;2023-06-10T10:01:04;2.20;;;2.00;;
24143;SDS011;12307;50.828;6.080;2023-06-10T10:03:30;2.17;;;2.08;;
24143;SDS011;12307;50.828;6.080;2023-06-10T10:05:57;2.03;;;1.92;;
24143;SDS011;12307;50.828;6.080;2023-06-10T10:08:24;2.17;;;2.00;;
24143;SDS011;12307;50.828;6.080;2023-06-10T10:10:50;2.10;;;2.00;;
24143;SDS011;12307;50.828;6.080;2023-06-10T10:13:17;2.15;;;1.98;;
24143;SDS011;12307;50.828;6.080;2023-06-10T10:15:43;1.77;;;1.67;;
24143;SDS011;12307;50.828;6.080;2023-06-10T10:18:11;1.67;;;1.58;;
24143;SDS011;12307;50.828;6.080;2023-06-10T10:20:44;2.22;;;2.03;;
24143;SDS011;12307;50.828;6.080;2023-06-10T10:23:13;2.00;;;1.90;;
24143;SDS011;12307;50.828;6.080;2023-06-10T10:25:43;1.95;;;1.85;;
24143;SDS011;12307;50.828;6.080;2023-06-10T10:28:11;2.10;;;2.00;;
24143;SDS011;12307;50.828;6.080;2023-06-10T10:30:39;1.80;;;1.70;;
24143;SDS011;12307;50.828;6.080;2023-06-10T10:33:07;2.03;;;1.92;;
24143;SDS011;12307;50.828;6.080;2023-06-10T10:35:37;2.20;;;2.10;;
24143;SDS011;12307;50.828;6.080;2023-06-10T10:38:03;1.83;;;1.73;;
24143;SDS011;12307;50.828;6.080;2023-06-10T10:40:30;1.77;;;1.67;;
24143;SDS011;12307;50.828;6.080;2023-06-10T10:42:58;1.77;;;1.67;;
24143;SDS011;12307;50.828;6.080;2023-06-10T10:45:24;2.15;;;1.95;;
24143;SDS011;12307;50.828;6.080;2023-06-10T10:47:54;1.75;;;1.65;;
24143;SDS011;12307;50.828;6.080;2023-06-10T10:50:21;2.00;;;1.90;;
24143;SDS011;12307;50.828;6.080;2023-06-10T10:52:51;2.08;;;1.98;;
24143;SDS011;12307;50.828;6.080;2023-06-10T10:55:19;2.00;;;1.90;;
24143;SDS011;12307;50.828;6.080;2023-06-10T10:57:45;1.90;;;1.80;;
24143;SDS011;12307;50.828;6.080;2023-06-10T11:00:25;2.00;;;1.90;;
24143;SDS011;12307;50.828;6.080;2023-06-10T11:02:54;1.75;;;1.65;;
24143;SDS011;12307;50.828;6.080;2023-06-10T11:05:31;2.20;;;2.10;;
24143;SDS011;12307;50.828;6.080;2023-06-10T11:08:00;1.83;;;1.73;;
24143;SDS011;12307;50.828;6.080;2023-06-10T11:10:29;1.70;;;1.60;;
24143;SDS011;12307;50.828;6.080;2023-06-10T11:12:56;2.08;;;1.98;;
24143;SDS011;12307;50.828;6.080;2023-06-10T11:15:22;1.90;;;1.80;;
24143;SDS011;12307;50.828;6.080;2023-06-10T11:18:09;1.98;;;1.88;;
24143;SDS011;12307;50.828;6.080;2023-06-10T11:20:43;1.90;;;1.80;;
24143;SDS011;12307;50.828;6.080;2023-06-10T11:23:10;2.10;;;2.00;;
24143;SDS011;12307;50.828;6.080;2023-06-10T11:25:49;2.15;;;1.95;;
24143;SDS011;12307;50.828;6.080;2023-06-10T11:28:17;2.00;;;1.90;;
24143;SDS011;12307;50.828;6.080;2023-06-10T11:30:44;1.85;;;1.75;;
24143;SDS011;12307;50.828;6.080;2023-06-10T11:33:14;2.10;;;2.00;;
24143;SDS011;12307;50.828;6.080;2023-06-10T11:35:42;1.92;;;1.83;;
24143;SDS011;12307;50.828;6.080;2023-06-10T11:38:08;1.90;;;1.80;;
24143;SDS011;12307;50.828;6.080;2023-06-10T11:40:34;1.90;;;1.80;;
24143;SDS011;12307;50.828;6.080;2023-06-10T11:43:01;2.03;;;1.90;;
24143;SDS011;12307;50.828;6.080;2023-06-10T11:45:29;2.00;;;1.90;;
24143;SDS011;12307;50.828;6.080;2023-06-10T11:47:55;2.10;;;1.92;;
24143;SDS011;12307;50.828;6.080;2023-06-10T11:50:28;1.80;;;1.70;;
24143;SDS011;12307;50.828;6.080;2023-06-10T11:52:55;1.90;;;1.80;;
24143;SDS011;12307;50.828;6.080;2023-06-10T11:55:21;1.90;;;1.80;;
24143;SDS011;12307;50.828;6.080;2023-06-10T11:57:46;1.90;;;1.80;;
24143;SDS011;12307;50.828;6.080;2023-06-10T12:00:14;2.03;;;1.92;;
24143;SDS011;12307;50.828;6.080;2023-06-10T12:02:40;2.00;;;1.90;;
24143;SDS011;12307;50.828;6.080;2023-06-10T12:05:12;2.28;;;2.15;;
24143;SDS011;12307;50.828;6.080;2023-06-10T12:07:39;2.22;;;2.00;;
24143;SDS011;12307;50.828;6.080;2023-06-10T12:10:05;2.10;;;2.00;;
24143;SDS011;12307;50.828;6.080;2023-06-10T12:12:34;1.85;;;1.75;;
24143;SDS011;12307;50.828;6.080;2023-06-10T12:14:59;1.98;;;1.88;;
24143;SDS011;12307;50.828;6.080;2023-06-10T12:17:35;2.33;;;2.13;;
24143;SDS011;12307;50.828;6.080;2023-06-10T12:20:02;2.08;;;1.98;;
24143;SDS011;12307;50.828;6.080;2023-06-10T12:22:35;2.00;;;1.90;;
24143;SDS011;12307;50.828;6.080;2023-06-10T12:25:03;2.08;;;1.98;;
24143;SDS011;12307;50.828;6.080;2023-06-10T12:27:31;2.20;;;2.10;;
24143;SDS011;12307;50.828;6.080;2023-06-10T12:29:58;2.22;;;2.13;;
24143;SDS011;12307;50.828;6.080;2023-06-10T12:32:35;2.35;;;2.10;;
24143;SDS011;12307;50.828;6.080;2023-06-10T12:35:06;2.20;;;2.10;;
24143;SDS011;12307;50.828;6.080;2023-06-10T12:37:32;2.67;;;2.00;;
24143;SDS011;12307;50.828;6.080;2023-06-10T12:39:59;2.00;;;1.90;;
24143;SDS011;12307;50.828;6.080;2023-06-10T12:42:27;2.25;;;2.13;;
24143;SDS011;12307;50.828;6.080;2023-06-10T12:44:53;2.00;;;1.90;;
24143;SDS011;12307;50.828;6.080;2023-06-10T12:47:20;1.85;;;1.75;;
24143;SDS011;12307;50.828;6.080;2023-06-10T12:49:54;2.30;;;2.10;;
24143;SDS011;12307;50.828;6.080;2023-06-10T12:52:19;2.05;;;1.95;;
24143;SDS011;12307;50.828;6.080;2023-06-10T12:54:45;2.38;;;2.22;;
24143;SDS011;12307;50.828;6.080;2023-06-10T12:57:11;2.50;;;2.30;;
24143;SDS011;12307;50.828;6.080;2023-06-10T12:59:39;2.15;;;2.00;;
24143;SDS011;12307;50.828;6.080;2023-06-10T13:02:05;2.05;;;1.95;;
24143;SDS011;12307;50.828;6.080;2023-06-10T13:04:31;2.25;;;2.05;;
24143;SDS011;12307;50.828;6.080;2023-06-10T13:06:56;1.95;;;1.85;;
24143;SDS011;12307;50.828;6.080;2023-06-10T13:09:24;2.10;;;2.00;;
24143;SDS011;12307;50.828;6.080;2023-06-10T13:11:50;2.15;;;2.05;;
24143;SDS011;12307;50.828;6.080;2023-06-10T13:14:17;2.10;;;1.95;;
24143;SDS011;12307;50.828;6.080;2023-06-10T13:16:44;2.55;;;2.35;;
24143;SDS011;12307;50.828;6.080;2023-06-10T13:19:10;2.42;;;2.22;;
24143;SDS011;12307;50.828;6.080;2023-06-10T13:21:36;2.20;;;2.10;;
24143;SDS011;12307;50.828;6.080;2023-06-10T13:24:02;2.40;;;2.20;;
24143;SDS011;12307;50.828;6.080;2023-06-10T13:26:28;2.50;;;2.30;;
24143;SDS011;12307;50.828;6.080;2023-06-10T13:28:54;2.20;;;2.10;;
24143;SDS011;12307;50.828;6.080;2023-06-10T13:31:19;2.25;;;2.15;;
24143;SDS011;12307;50.828;6.080;2023-06-10T13:33:47;2.45;;;2.25;;
24143;SDS011;12307;50.828;6.080;2023-06-10T13:36:13;2.58;;;1.98;;
24143;SDS011;12307;50.828;6.080;2023-06-10T13:38:38;2.60;;;2.40;;
24143;SDS011;12307;50.828;6.080;2023-06-10T13:41:04;2.20;;;2.10;;
24143;SDS011;12307;50.828;6.080;2023-06-10T13:43:30;2.45;;;2.25;;
24143;SDS011;12307;50.828;6.080;2023-06-10T13:45:56;2.60;;;2.40;;
24143;SDS011;12307;50.828;6.080;2023-06-10T13:48:22;2.40;;;2.20;;
24143;SDS011;12307;50.828;6.080;2023-06-10T13:50:49;2.40;;;2.20;;
24143;SDS011;12307;50.828;6.080;2023-06-10T13:53:14;2.13;;;2.03;;
24143;SDS011;12307;50.828;6.080;2023-06-10T13:55:40;2.40;;;2.20;;
24143;SDS011;12307;50.828;6.080;2023-06-10T13:58:06;2.45;;;2.25;;
24143;SDS011;12307;50.828;6.080;2023-06-10T14:00:32;2.45;;;2.25;;
24143;SDS011;12307;50.828;6.080;2023-06-10T14:02:57;2.80;;;2.60;;
24143;SDS011;12307;50.828;6.080;2023-06-10T14:05:23;2.40;;;2.20;;
24143;SDS011;12307;50.828;6.080;2023-06-10T14:07:50;3.05;;;2.38;;
24143;SDS011;12307;50.828;6.080;2023-06-10T14:10:16;2.35;;;2.22;;
24143;SDS011;12307;50.828;6.080;2023-06-10T14:12:42;2.65;;;2.45;;
24143;SDS011;12307;50.828;6.080;2023-06-10T14:15:07;2.53;;;2.33;;
24143;SDS011;12307;50.828;6.080;2023-06-10T14:17:33;2.22;;;2.13;;
24143;SDS011;12307;50.828;6.080;2023-06-10T14:19:59;2.60;;;2.40;;
24143;SDS011;12307;50.828;6.080;2023-06-10T14:22:25;2.83;;;2.38;;
24143;SDS011;12307;50.828;6.080;2023-06-10T14:24:52;2.50;;;2.30;;
24143;SDS011;12307;50.828;6.080;2023-06-10T14:27:17;2.42;;;2.22;;
24143;SDS011;12307;50.828;6.080;2023-06-10T14:29:43;2.40;;;2.20;;
24143;SDS011;12307;50.828;6.080;2023-06-10T14:32:09;2.45;;;2.25;;
24143;SDS011;12307;50.828;6.080;2023-06-10T14:34:35;2.45;;;2.25;;
24143;SDS011;12307;50.828;6.080;2023-06-10T14:37:00;2.60;;;2.40;;
24143;SDS011;12307;50.828;6.080;2023-06-10T14:39:32;2.53;;;2.33;;
24143;SDS011;12307;50.828;6.080;2023-06-10T14:41:59;2.20;;;2.10;;
24143;SDS011;12307;50.828;6.080;2023-06-10T14:44:24;2.70;;;2.50;;
24143;SDS011;12307;50.828;6.080;2023-06-10T14:46:50;2.30;;;2.20;;